Terminal Aerodrome Forecast
Issued by NWS

Home | Current Version | Previous Version | Text Only | Print | Product List | Glossary On
Versions: 1 2 3 4 5 6 7 8 9 10 11 12 13 14 15 16 17 18 19 20
000
FTUS41 KBGM 300500
TAFELM
TAF
KELM 300536Z 3006/3106 00000KT 3SM BR SCT002
      TEMPO 3006/3010 1SM BR
     FM301000 00000KT 3SM BR SCT002 SCT080
      TEMPO 3010/3013 3/4SM BR OVC002
     FM301300 23005KT P6SM BKN080
     FM301800 24007KT P6SM -SHRA OVC080
      TEMPO 3020/3024 5SM -SHRA OVC060
     FM310000 22003KT P6SM BKN120=

USA.gov is the U.S. government's official web portal to all federal, state and local government web resources and services.